createdAt,value
2023-05-06T00:00:16.239Z,98.93
2023-05-06T00:01:16.211Z,98.93
2023-05-06T00:02:16.219Z,98.93
2023-05-06T00:03:16.288Z,99.04
2023-05-06T00:04:16.265Z,99.04
2023-05-06T00:05:16.178Z,99.14
2023-05-06T00:06:16.179Z,99.24
2023-05-06T00:07:16.176Z,99.24
2023-05-06T00:08:16.189Z,99.34
2023-05-06T00:09:16.213Z,99.34
2023-05-06T00:10:16.129Z,99.44
2023-05-06T00:11:16.126Z,99.54
2023-05-06T00:12:16.114Z,99.54
2023-05-06T00:13:16.245Z,99.54
2023-05-06T00:14:16.077Z,99.65
2023-05-06T00:15:16.071Z,99.75
2023-05-06T00:16:16.071Z,99.75
2023-05-06T00:17:16.037Z,99.75
2023-05-06T00:18:16.032Z,99.85
2023-05-06T00:19:16.051Z,99.85
2023-05-06T00:20:16.015Z,99.85
2023-05-06T00:21:15.991Z,99.85
2023-05-06T00:22:16.018Z,99.95
2023-05-06T00:23:15.980Z,99.95
2023-05-06T00:24:15.970Z,99.95
2023-05-06T00:25:15.953Z,99.95
2023-05-06T00:26:15.975Z,99.90
2023-05-06T00:27:15.932Z,99.99
2023-05-06T00:28:15.952Z,99.99
2023-05-06T00:29:15.933Z,99.99
2023-05-06T00:30:15.926Z,99.99
2023-05-06T00:31:15.905Z,99.99
2023-05-06T00:32:15.919Z,99.99
2023-05-06T00:33:15.926Z,99.99
2023-05-06T00:34:15.859Z,99.99
2023-05-06T00:35:15.858Z,99.99
2023-05-06T00:36:15.858Z,99.99
2023-05-06T00:37:15.856Z,99.99
2023-05-06T00:38:15.817Z,99.99
2023-05-06T00:39:15.807Z,99.99
2023-05-06T00:40:15.788Z,99.99
2023-05-06T00:41:15.786Z,99.99
2023-05-06T00:42:15.770Z,99.99
2023-05-06T00:43:15.793Z,99.99
2023-05-06T00:44:15.755Z,99.99
2023-05-06T00:45:15.752Z,99.99
2023-05-06T00:46:15.766Z,99.99
2023-05-06T00:47:15.733Z,99.99
2023-05-06T00:48:15.774Z,99.99
2023-05-06T00:49:15.691Z,99.99
2023-05-06T00:50:15.697Z,99.99
2023-05-06T00:51:15.670Z,99.99
2023-05-06T00:52:15.710Z,99.99
2023-05-06T00:53:15.677Z,99.99
2023-05-06T00:54:15.648Z,99.99
2023-05-06T00:55:15.641Z,99.99
2023-05-06T00:56:15.616Z,99.99
2023-05-06T00:57:15.625Z,99.99
2023-05-06T00:58:15.606Z,99.99
2023-05-06T00:59:15.600Z,99.99
2023-05-06T01:00:17.137Z,99.99
2023-05-06T01:01:15.650Z,99.99
2023-05-06T01:02:15.615Z,99.99
2023-05-06T01:03:15.668Z,99.99
2023-05-06T01:04:15.539Z,99.99
2023-05-06T01:05:15.605Z,99.99
2023-05-06T01:06:15.528Z,99.99
2023-05-06T01:07:15.496Z,99.99
2023-05-06T01:08:15.497Z,99.99
2023-05-06T01:09:15.518Z,99.99
2023-05-06T01:10:15.485Z,99.99
2023-05-06T01:11:16.080Z,99.99
2023-05-06T01:12:15.471Z,99.99
2023-05-06T01:13:15.593Z,99.99
2023-05-06T01:14:15.468Z,99.99
2023-05-06T01:15:15.420Z,99.99
2023-05-06T01:16:15.402Z,99.99
2023-05-06T01:17:15.450Z,99.99
2023-05-06T01:18:15.391Z,99.99
2023-05-06T01:19:15.364Z,99.99
2023-05-06T01:20:15.431Z,99.99
2023-05-06T01:21:15.354Z,99.99
2023-05-06T01:22:15.351Z,99.99
2023-05-06T01:23:15.328Z,99.99
2023-05-06T01:24:15.313Z,99.99
2023-05-06T01:25:15.342Z,99.99
2023-05-06T01:26:15.295Z,99.99
2023-05-06T01:27:15.285Z,99.99
2023-05-06T01:28:15.287Z,99.99
2023-05-06T01:29:15.271Z,99.99
2023-05-06T01:30:15.258Z,99.99
2023-05-06T01:31:15.349Z,99.99
2023-05-06T01:32:15.278Z,99.99
2023-05-06T01:33:15.214Z,99.99
2023-05-06T01:34:15.209Z,99.99
2023-05-06T01:35:15.197Z,99.99
2023-05-06T01:36:15.200Z,99.99
2023-05-06T01:37:15.174Z,99.99
2023-05-06T01:38:15.212Z,99.99
2023-05-06T01:39:15.149Z,99.99
2023-05-06T01:40:15.183Z,99.99
2023-05-06T01:41:15.124Z,99.99
2023-05-06T01:42:15.199Z,99.99
2023-05-06T01:43:15.112Z,99.99
2023-05-06T01:44:15.113Z,99.99
2023-05-06T01:45:15.083Z,99.99
2023-05-06T01:46:15.081Z,99.99
2023-05-06T01:47:15.074Z,99.99
2023-05-06T01:48:15.079Z,99.99
2023-05-06T01:49:15.044Z,99.99
2023-05-06T01:50:15.039Z,99.99
2023-05-06T01:51:15.024Z,99.99
2023-05-06T01:52:15.037Z,99.99
2023-05-06T01:53:14.997Z,99.99
2023-05-06T01:54:15.029Z,99.99
2023-05-06T01:55:14.984Z,99.99
2023-05-06T01:56:14.972Z,99.99
2023-05-06T01:57:14.959Z,99.99
2023-05-06T01:58:14.952Z,99.99
2023-05-06T01:59:14.979Z,99.99
2023-05-06T02:00:14.957Z,99.99
2023-05-06T02:01:14.929Z,99.99
2023-05-06T02:02:14.920Z,99.99
2023-05-06T02:03:15.058Z,99.99
2023-05-06T02:04:14.890Z,99.99
2023-05-06T02:05:14.857Z,99.99
2023-05-06T02:06:14.861Z,99.99
2023-05-06T02:07:14.838Z,99.99
2023-05-06T02:08:14.872Z,99.99
2023-05-06T02:09:14.848Z,99.99
2023-05-06T02:10:14.830Z,99.99
2023-05-06T02:11:14.801Z,99.99
2023-05-06T02:12:14.799Z,99.99
2023-05-06T02:13:14.959Z,99.99
2023-05-06T02:14:14.923Z,99.99
2023-05-06T02:15:14.769Z,99.99
2023-05-06T02:16:14.787Z,99.99
2023-05-06T02:17:14.739Z,99.99
2023-05-06T02:18:14.789Z,99.99
2023-05-06T02:19:14.724Z,99.99
2023-05-06T02:20:14.732Z,99.99
2023-05-06T02:21:14.695Z,99.99
2023-05-06T02:22:14.691Z,99.99
2023-05-06T02:23:14.698Z,99.99
2023-05-06T02:24:14.670Z,99.99
2023-05-06T02:25:14.730Z,99.99
2023-05-06T02:26:14.647Z,99.99
2023-05-06T02:27:14.657Z,99.99
2023-05-06T02:28:14.630Z,99.99
2023-05-06T02:29:14.603Z,99.99
2023-05-06T02:30:14.634Z,99.99
2023-05-06T02:31:14.650Z,99.99
2023-05-06T02:32:14.588Z,99.99
2023-05-06T02:33:14.567Z,99.99
2023-05-06T02:34:14.578Z,99.99
2023-05-06T02:35:14.602Z,99.99
2023-05-06T02:36:14.568Z,99.99
2023-05-06T02:37:14.519Z,99.99
2023-05-06T02:38:14.506Z,99.99
2023-05-06T02:39:14.502Z,99.99
2023-05-06T02:40:14.491Z,99.99
2023-05-06T02:41:14.504Z,99.99
2023-05-06T02:42:14.527Z,99.99
2023-05-06T02:43:14.454Z,99.99
2023-05-06T02:44:14.430Z,99.98
2023-05-06T02:45:14.441Z,99.88
2023-05-06T02:46:14.470Z,99.88
2023-05-06T02:47:14.472Z,99.88
2023-05-06T02:48:14.436Z,99.78
2023-05-06T02:49:14.423Z,99.78
2023-05-06T02:50:14.380Z,99.68
2023-05-06T02:51:14.368Z,99.62
2023-05-06T02:52:14.412Z,99.52
2023-05-06T02:53:14.341Z,99.52
2023-05-06T02:54:14.402Z,99.41
2023-05-06T02:55:14.324Z,99.41
2023-05-06T02:56:14.318Z,99.31
2023-05-06T02:57:14.292Z,99.31
2023-05-06T02:58:14.381Z,99.31
2023-05-06T02:59:14.275Z,99.31
2023-05-06T03:00:14.302Z,99.41
2023-05-06T03:01:14.301Z,99.41
2023-05-06T03:02:14.285Z,99.52
2023-05-06T03:03:14.256Z,99.52
2023-05-06T03:04:14.365Z,99.62
2023-05-06T03:05:14.220Z,99.62
2023-05-06T03:06:14.197Z,99.62
2023-05-06T03:07:14.230Z,99.72
2023-05-06T03:08:14.174Z,99.72
2023-05-06T03:09:14.165Z,99.72
2023-05-06T03:10:14.249Z,99.82
2023-05-06T03:11:14.146Z,99.82
2023-05-06T03:12:14.165Z,99.82
2023-05-06T03:13:14.190Z,99.82
2023-05-06T03:14:14.165Z,99.93
2023-05-06T03:15:14.102Z,99.99
2023-05-06T03:16:14.113Z,99.99
2023-05-06T03:17:14.111Z,99.99
2023-05-06T03:18:14.074Z,99.99
2023-05-06T03:19:14.063Z,99.99
2023-05-06T03:20:14.048Z,99.99
2023-05-06T03:21:14.060Z,99.99
2023-05-06T03:22:14.046Z,99.99
2023-05-06T03:23:14.026Z,99.99
2023-05-06T03:24:14.002Z,99.99
2023-05-06T03:25:14.007Z,99.99
2023-05-06T03:26:13.987Z,99.99
2023-05-06T03:27:14.014Z,99.99
2023-05-06T03:28:13.976Z,99.99
2023-05-06T03:29:13.965Z,99.99
2023-05-06T03:30:13.929Z,99.99
2023-05-06T03:31:13.967Z,99.99
2023-05-06T03:32:13.920Z,99.99
2023-05-06T03:33:13.969Z,99.99
2023-05-06T03:34:13.900Z,99.99
2023-05-06T03:35:13.892Z,99.99
2023-05-06T03:36:13.909Z,99.99
2023-05-06T03:37:13.866Z,99.99
2023-05-06T03:38:13.852Z,99.99
2023-05-06T03:39:13.908Z,99.99
2023-05-06T03:40:13.872Z,99.99
2023-05-06T03:41:13.823Z,99.99
2023-05-06T03:42:13.805Z,99.99
2023-05-06T03:43:13.807Z,99.99
2023-05-06T03:44:13.811Z,99.99
2023-05-06T03:45:13.803Z,99.99
2023-05-06T03:46:13.798Z,99.99
2023-05-06T03:47:13.754Z,99.99
2023-05-06T03:48:13.868Z,99.99
2023-05-06T03:49:13.731Z,99.99
2023-05-06T03:50:13.772Z,99.99
2023-05-06T03:51:13.776Z,99.99
2023-05-06T03:52:13.694Z,99.99
2023-05-06T03:53:13.693Z,99.99
2023-05-06T03:54:13.679Z,99.99
2023-05-06T03:55:13.672Z,99.99
2023-05-06T03:56:13.652Z,99.99
2023-05-06T03:57:13.707Z,99.99
2023-05-06T03:58:13.642Z,99.99
2023-05-06T03:59:13.651Z,99.99
2023-05-06T04:00:13.627Z,99.99
2023-05-06T04:01:13.608Z,99.99
2023-05-06T04:02:13.672Z,99.99
2023-05-06T04:03:13.702Z,99.99
2023-05-06T04:04:13.744Z,99.99
2023-05-06T04:05:13.569Z,99.99
2023-05-06T04:06:13.552Z,99.99
2023-05-06T04:07:13.546Z,99.93
2023-05-06T04:08:13.557Z,99.93
2023-05-06T04:09:13.508Z,99.93
2023-05-06T04:10:13.500Z,99.82
2023-05-06T04:11:13.520Z,99.82
2023-05-06T04:12:13.553Z,99.78
2023-05-06T04:13:13.531Z,99.88
2023-05-06T04:14:13.627Z,99.78
2023-05-06T04:15:13.481Z,99.88
2023-05-06T04:16:13.498Z,99.78
2023-05-06T04:17:13.426Z,99.78
2023-05-06T04:18:13.419Z,99.78
2023-05-06T04:19:13.577Z,99.68
2023-05-06T04:20:13.399Z,99.57
2023-05-06T04:21:13.406Z,99.57
2023-05-06T04:22:13.606Z,99.57
2023-05-06T04:23:13.360Z,99.47
2023-05-06T04:24:13.402Z,99.37
2023-05-06T04:25:13.398Z,99.37
2023-05-06T04:26:13.338Z,99.27
2023-05-06T04:27:13.595Z,99.27
2023-05-06T04:28:13.303Z,99.27
2023-05-06T04:29:13.293Z,99.27
2023-05-06T04:30:13.284Z,99.27
2023-05-06T04:31:13.343Z,99.37
2023-05-06T04:32:13.276Z,99.32
2023-05-06T04:33:13.308Z,99.32
2023-05-06T04:34:13.241Z,99.22
2023-05-06T04:35:13.787Z,99.11
2023-05-06T04:36:13.220Z,99.02
2023-05-06T04:37:13.247Z,98.91
2023-05-06T04:38:13.206Z,98.86
2023-05-06T04:39:13.192Z,98.86
2023-05-06T04:40:13.185Z,98.75
2023-05-06T04:41:13.176Z,98.75
2023-05-06T04:42:13.176Z,98.75
2023-05-06T04:43:13.149Z,98.75
2023-05-06T04:44:13.147Z,98.75
2023-05-06T04:45:13.128Z,98.71
2023-05-06T04:46:13.210Z,98.81
2023-05-06T04:47:13.156Z,98.81
2023-05-06T04:48:13.087Z,98.81
2023-05-06T04:49:13.091Z,98.91
2023-05-06T04:50:13.565Z,99.02
2023-05-06T04:51:13.071Z,99.11
2023-05-06T04:52:13.042Z,99.07
2023-05-06T04:53:13.038Z,99.07
2023-05-06T04:54:13.032Z,99.07
2023-05-06T04:55:13.127Z,99.07
2023-05-06T04:56:13.002Z,99.07
2023-05-06T04:57:12.997Z,99.07
2023-05-06T04:58:12.988Z,99.07
2023-05-06T04:59:12.974Z,99.07
2023-05-06T05:00:15.039Z,99.07
2023-05-06T05:01:12.975Z,99.07
2023-05-06T05:02:13.098Z,99.07
2023-05-06T05:03:13.093Z,99.07
2023-05-06T05:04:12.965Z,98.97
2023-05-06T05:05:13.061Z,98.82
2023-05-06T05:06:12.904Z,98.82
2023-05-06T05:07:13.806Z,98.77
2023-05-06T05:08:12.876Z,98.72
2023-05-06T05:09:12.918Z,98.61
2023-05-06T05:10:12.851Z,98.61
2023-05-06T05:11:12.862Z,98.61
2023-05-06T05:12:12.832Z,98.72
2023-05-06T05:13:15.256Z,98.72
2023-05-06T05:14:12.829Z,98.61
2023-05-06T05:15:13.005Z,98.52
2023-05-06T05:16:12.814Z,98.52
2023-05-06T05:17:12.850Z,98.41
2023-05-06T05:18:12.781Z,98.41
2023-05-06T05:19:12.786Z,98.41
2023-05-06T05:20:12.771Z,98.41
2023-05-06T05:21:12.774Z,98.31
2023-05-06T05:22:12.721Z,98.41
2023-05-06T05:23:12.710Z,98.31
2023-05-06T05:24:12.697Z,98.27
2023-05-06T05:25:13.020Z,98.16
2023-05-06T05:26:12.715Z,98.06
2023-05-06T05:27:12.751Z,97.96
2023-05-06T05:28:12.654Z,97.90
2023-05-06T05:29:12.668Z,97.75
2023-05-06T05:30:12.675Z,97.75
2023-05-06T05:31:12.662Z,97.75
2023-05-06T05:32:12.612Z,97.75
2023-05-06T05:33:12.660Z,97.75
2023-05-06T05:34:12.695Z,97.75
2023-05-06T05:35:12.731Z,97.65
2023-05-06T05:36:12.593Z,97.65
2023-05-06T05:37:12.575Z,97.55
2023-05-06T05:38:12.549Z,97.55
2023-05-06T05:39:12.546Z,97.45
2023-05-06T05:40:12.528Z,97.34
2023-05-06T05:41:12.581Z,97.34
2023-05-06T05:42:12.497Z,97.24
2023-05-06T05:43:12.499Z,97.14
2023-05-06T05:44:12.485Z,97.20
2023-05-06T05:45:12.471Z,97.20
2023-05-06T05:46:12.468Z,97.20
2023-05-06T05:47:12.521Z,97.20
2023-05-06T05:48:12.492Z,97.20
2023-05-06T05:49:12.425Z,97.20
2023-05-06T05:50:12.419Z,97.20
2023-05-06T05:51:12.434Z,97.20
2023-05-06T05:52:12.412Z,97.09
2023-05-06T05:53:12.435Z,97.00
2023-05-06T05:54:12.387Z,96.89
2023-05-06T05:55:12.370Z,96.75
2023-05-06T05:56:12.362Z,96.75
2023-05-06T05:57:12.352Z,96.95
2023-05-06T05:58:12.339Z,96.84
2023-05-06T05:59:12.373Z,96.84
2023-05-06T06:00:13.549Z,96.60
2023-05-06T06:01:12.357Z,96.50
2023-05-06T06:02:12.280Z,96.39
2023-05-06T06:03:12.433Z,96.30
2023-05-06T06:04:13.874Z,96.19
2023-05-06T06:05:12.338Z,96.09
2023-05-06T06:06:12.239Z,95.89
2023-05-06T06:07:12.239Z,95.68
2023-05-06T06:08:12.259Z,95.68
2023-05-06T06:09:12.207Z,95.43
2023-05-06T06:10:12.200Z,95.33
2023-05-06T06:11:12.186Z,95.33
2023-05-06T06:12:12.301Z,95.23
2023-05-06T06:13:13.483Z,95.13
2023-05-06T06:14:12.145Z,95.13
2023-05-06T06:15:12.327Z,95.13
2023-05-06T06:16:12.168Z,94.98
2023-05-06T06:17:12.129Z,94.88
2023-05-06T06:18:12.116Z,94.78
2023-05-06T06:19:12.108Z,94.78
2023-05-06T06:20:12.097Z,94.57
2023-05-06T06:21:12.132Z,94.47
2023-05-06T06:22:12.070Z,94.27
2023-05-06T06:23:12.068Z,94.27
2023-05-06T06:24:12.039Z,94.27
2023-05-06T06:25:12.268Z,94.27
2023-05-06T06:26:12.549Z,94.27
2023-05-06T06:27:12.007Z,94.27
2023-05-06T06:28:11.989Z,94.17
2023-05-06T06:29:11.995Z,94.12
2023-05-06T06:30:11.986Z,93.92
2023-05-06T06:31:12.022Z,93.92
2023-05-06T06:32:12.019Z,93.92
2023-05-06T06:33:11.953Z,93.92
2023-05-06T06:34:11.938Z,93.92
2023-05-06T06:35:12.092Z,93.82
2023-05-06T06:36:11.934Z,93.77
2023-05-06T06:37:12.829Z,93.77
2023-05-06T06:38:11.883Z,93.67
2023-05-06T06:39:11.879Z,93.67
2023-05-06T06:40:11.872Z,93.77
2023-05-06T06:41:11.856Z,93.77
2023-05-06T06:42:11.883Z,93.67
2023-05-06T06:43:11.897Z,93.52
2023-05-06T06:44:11.825Z,93.43
2023-05-06T06:45:12.114Z,93.43
2023-05-06T06:46:11.859Z,93.43
2023-05-06T06:47:11.827Z,93.12
2023-05-06T06:48:13.040Z,93.02
2023-05-06T06:49:11.765Z,92.91
2023-05-06T06:50:11.757Z,92.91
2023-05-06T06:51:11.756Z,92.82
2023-05-06T06:52:11.740Z,92.71
2023-05-06T06:53:11.737Z,92.61
2023-05-06T06:54:12.112Z,92.67
2023-05-06T06:55:11.978Z,92.57
2023-05-06T06:56:11.700Z,92.57
2023-05-06T06:57:11.723Z,92.57
2023-05-06T06:58:11.680Z,92.47
2023-05-06T06:59:11.659Z,92.47
2023-05-06T07:00:11.668Z,92.47
2023-05-06T07:01:11.683Z,92.22
2023-05-06T07:02:11.627Z,92.12
2023-05-06T07:03:11.672Z,92.22
2023-05-06T07:04:11.646Z,92.22
2023-05-06T07:05:11.984Z,91.82
2023-05-06T07:06:11.590Z,91.51
2023-05-06T07:07:11.654Z,91.30
2023-05-06T07:08:16.855Z,91.20
2023-05-06T07:09:11.553Z,91.30
2023-05-06T07:10:11.534Z,90.96
2023-05-06T07:11:11.527Z,90.96
2023-05-06T07:12:11.549Z,90.86
2023-05-06T07:13:11.522Z,90.75
2023-05-06T07:14:11.507Z,90.66
2023-05-06T07:15:11.715Z,90.55
2023-05-06T07:16:11.476Z,90.55
2023-05-06T07:17:11.582Z,90.25
2023-05-06T07:18:11.540Z,90.35
2023-05-06T07:19:11.450Z,90.35
2023-05-06T07:20:11.438Z,90.35
2023-05-06T07:21:11.438Z,90.31
2023-05-06T07:22:11.443Z,90.31
2023-05-06T07:23:11.388Z,90.20
2023-05-06T07:24:11.404Z,90.31
2023-05-06T07:25:11.640Z,90.31
2023-05-06T07:26:11.429Z,90.20
2023-05-06T07:27:11.361Z,90.11
2023-05-06T07:28:11.406Z,89.80
2023-05-06T07:29:11.357Z,89.70
2023-05-06T07:30:11.336Z,89.45
2023-05-06T07:31:11.353Z,89.45
2023-05-06T07:32:11.312Z,89.65
2023-05-06T07:33:11.783Z,89.86
2023-05-06T07:34:11.289Z,89.45
2023-05-06T07:35:11.529Z,89.31
2023-05-06T07:36:11.253Z,88.90
2023-05-06T07:37:11.249Z,88.70
2023-05-06T07:38:11.241Z,88.29
2023-05-06T07:39:11.268Z,88.29
2023-05-06T07:40:11.251Z,88.49
2023-05-06T07:41:11.265Z,88.20
2023-05-06T07:42:11.228Z,88.09
2023-05-06T07:43:11.173Z,88.29
2023-05-06T07:44:11.178Z,88.29
2023-05-06T07:45:11.635Z,87.99
2023-05-06T07:46:11.190Z,87.89
2023-05-06T07:47:11.237Z,88.09
2023-05-06T07:48:11.250Z,88.49
2023-05-06T07:49:11.117Z,88.76
2023-05-06T07:50:11.109Z,88.46
2023-05-06T07:51:11.100Z,88.15
2023-05-06T07:52:11.097Z,87.14
2023-05-06T07:53:11.088Z,86.83
2023-05-06T07:54:11.114Z,86.63
2023-05-06T07:55:11.271Z,86.53
2023-05-06T07:56:11.054Z,86.43
2023-05-06T07:57:11.049Z,86.33
2023-05-06T07:58:11.019Z,86.22
2023-05-06T07:59:11.008Z,86.02
2023-05-06T08:00:12.616Z,86.02
2023-05-06T08:01:12.212Z,86.02
2023-05-06T08:02:11.059Z,86.19
2023-05-06T08:03:11.009Z,85.99
2023-05-06T08:04:11.046Z,85.68
2023-05-06T08:05:11.150Z,85.68
2023-05-06T08:06:10.948Z,85.88
2023-05-06T08:07:10.929Z,85.99
2023-05-06T08:08:11.002Z,85.48
2023-05-06T08:09:13.082Z,84.56
2023-05-06T08:10:11.965Z,84.47
2023-05-06T08:11:10.871Z,84.87
2023-05-06T08:12:10.883Z,85.07
2023-05-06T08:13:10.917Z,85.64
2023-05-06T08:14:10.887Z,85.33
2023-05-06T08:15:11.037Z,85.03
2023-05-06T08:16:10.906Z,84.93
2023-05-06T08:17:10.815Z,84.73
2023-05-06T08:18:21.525Z,84.02
2023-05-06T08:19:11.808Z,83.41
2023-05-06T08:20:10.795Z,83.21
2023-05-06T08:21:10.768Z,83.41
2023-05-06T08:22:10.763Z,83.51
2023-05-06T08:23:10.742Z,83.51
2023-05-06T08:24:10.762Z,83.01
2023-05-06T08:25:10.868Z,83.01
2023-05-06T08:26:10.734Z,83.31
2023-05-06T08:27:10.733Z,83.82
2023-05-06T08:28:10.697Z,83.98
2023-05-06T08:29:10.682Z,83.78
2023-05-06T08:30:10.715Z,83.58
2023-05-06T08:31:11.054Z,83.37
2023-05-06T08:32:11.000Z,82.67
2023-05-06T08:33:10.668Z,82.67
2023-05-06T08:34:10.642Z,82.76
2023-05-06T08:35:10.851Z,82.76
2023-05-06T08:36:10.608Z,82.76
2023-05-06T08:37:10.597Z,82.36
2023-05-06T08:38:10.634Z,82.56
2023-05-06T08:39:10.576Z,82.46
2023-05-06T08:40:10.561Z,81.76
2023-05-06T08:41:10.538Z,81.62
2023-05-06T08:42:10.969Z,81.51
2023-05-06T08:43:10.532Z,81.21
2023-05-06T08:44:10.617Z,81.41
2023-05-06T08:45:10.660Z,81.92
2023-05-06T08:46:10.536Z,81.62
2023-05-06T08:47:12.964Z,81.41
2023-05-06T08:48:10.493Z,81.41
2023-05-06T08:49:10.458Z,81.31
2023-05-06T08:50:10.462Z,81.48
2023-05-06T08:51:10.446Z,81.88
2023-05-06T08:52:10.481Z,81.48
2023-05-06T08:53:10.823Z,81.17
2023-05-06T08:54:10.464Z,80.87
2023-05-06T08:55:10.639Z,80.57
2023-05-06T08:56:10.396Z,80.66
2023-05-06T08:57:12.459Z,80.83
2023-05-06T08:58:10.397Z,80.83
2023-05-06T08:59:10.424Z,79.52
2023-05-06T09:00:10.355Z,77.80
2023-05-06T09:01:10.378Z,78.20
2023-05-06T09:02:10.424Z,78.20
2023-05-06T09:03:10.355Z,77.09
2023-05-06T09:04:10.304Z,77.39
2023-05-06T09:05:12.632Z,78.17
2023-05-06T09:06:10.320Z,78.77
2023-05-06T09:07:10.309Z,78.88
2023-05-06T09:08:10.262Z,79.14
2023-05-06T09:09:10.245Z,78.53
2023-05-06T09:10:10.465Z,77.73
2023-05-06T09:11:10.228Z,76.92
2023-05-06T09:12:10.210Z,76.31
2023-05-06T09:13:10.296Z,76.48
2023-05-06T09:14:10.196Z,76.48
2023-05-06T09:15:10.314Z,75.57
2023-05-06T09:16:10.225Z,75.57
2023-05-06T09:17:10.176Z,75.67
2023-05-06T09:18:10.178Z,74.83
2023-05-06T09:19:10.196Z,74.16
2023-05-06T09:20:10.138Z,74.83
2023-05-06T09:21:10.113Z,74.22
2023-05-06T09:22:10.115Z,74.43
2023-05-06T09:23:10.141Z,74.52
2023-05-06T09:24:10.094Z,74.73
2023-05-06T09:25:10.232Z,74.63
2023-05-06T09:26:10.064Z,74.63
2023-05-06T09:27:13.263Z,75.23
2023-05-06T09:28:10.063Z,74.63
2023-05-06T09:29:10.036Z,73.52
2023-05-06T09:30:10.030Z,73.82
2023-05-06T09:31:10.027Z,74.22
2023-05-06T09:32:10.095Z,73.22
2023-05-06T09:33:10.176Z,73.22
2023-05-06T09:34:09.980Z,73.42
2023-05-06T09:35:10.502Z,73.52
2023-05-06T09:36:09.961Z,73.42
2023-05-06T09:37:09.956Z,73.82
2023-05-06T09:38:09.982Z,73.62
2023-05-06T09:39:10.127Z,73.32
2023-05-06T09:40:09.961Z,73.22
2023-05-06T09:41:09.901Z,72.20
2023-05-06T09:42:09.895Z,73.01
2023-05-06T09:43:09.892Z,73.11
2023-05-06T09:44:09.950Z,72.81
2023-05-06T09:45:10.189Z,73.18
2023-05-06T09:46:09.873Z,72.98
2023-05-06T09:47:09.835Z,73.28
2023-05-06T09:48:10.116Z,72.98
2023-05-06T09:49:09.809Z,72.38
2023-05-06T09:50:09.831Z,72.67
2023-05-06T09:51:09.832Z,72.98
2023-05-06T09:52:09.793Z,73.08
2023-05-06T09:53:09.811Z,73.48
2023-05-06T09:54:09.776Z,73.08
2023-05-06T09:55:10.105Z,72.88
2023-05-06T09:56:09.765Z,73.28
2023-05-06T09:57:09.729Z,73.05
2023-05-06T09:58:09.759Z,72.74
2023-05-06T09:59:09.712Z,72.04
2023-05-06T10:00:09.711Z,71.33
2023-05-06T10:01:09.796Z,71.33
2023-05-06T10:02:09.733Z,71.70
2023-05-06T10:03:09.838Z,71.10
2023-05-06T10:04:10.223Z,71.10
2023-05-06T10:05:09.885Z,70.59
2023-05-06T10:06:09.663Z,70.50
2023-05-06T10:07:09.625Z,70.59
2023-05-06T10:08:09.632Z,69.59
2023-05-06T10:09:09.729Z,69.59
2023-05-06T10:10:09.606Z,70.09
2023-05-06T10:11:09.577Z,70.39
2023-05-06T10:12:09.579Z,70.19
2023-05-06T10:13:09.620Z,69.89
2023-05-06T10:14:09.577Z,69.49
2023-05-06T10:15:09.763Z,69.69
2023-05-06T10:16:09.611Z,69.89
2023-05-06T10:17:09.520Z,70.09
2023-05-06T10:18:09.551Z,70.06
2023-05-06T10:19:09.550Z,69.56
2023-05-06T10:20:09.491Z,68.85
2023-05-06T10:21:09.476Z,68.65
2023-05-06T10:22:09.470Z,68.31
2023-05-06T10:23:09.452Z,68.21
2023-05-06T10:24:09.449Z,68.01
2023-05-06T10:25:09.679Z,67.71
2023-05-06T10:26:09.443Z,66.77
2023-05-06T10:27:09.447Z,67.47
2023-05-06T10:28:11.398Z,67.58
2023-05-06T10:29:10.614Z,66.17
2023-05-06T10:30:09.373Z,64.83
2023-05-06T10:31:09.363Z,64.13
2023-05-06T10:32:09.362Z,63.53
2023-05-06T10:33:09.372Z,63.02
2023-05-06T10:34:09.335Z,62.92
2023-05-06T10:35:09.759Z,63.12
2023-05-06T10:36:09.316Z,62.92
2023-05-06T10:37:09.292Z,62.42
2023-05-06T10:38:09.316Z,62.72
2023-05-06T10:39:09.268Z,62.62
2023-05-06T10:40:09.303Z,63.02
2023-05-06T10:41:09.256Z,63.82
2023-05-06T10:42:09.245Z,64.33
2023-05-06T10:43:09.232Z,63.93
2023-05-06T10:44:09.221Z,63.42
2023-05-06T10:45:09.335Z,63.22
2023-05-06T10:46:09.428Z,63.32
2023-05-06T10:47:09.189Z,64.33
2023-05-06T10:48:09.183Z,64.63
2023-05-06T10:49:09.185Z,64.53
2023-05-06T10:50:09.193Z,64.10
2023-05-06T10:51:09.143Z,63.39
2023-05-06T10:52:09.124Z,62.89
2023-05-06T10:53:09.109Z,62.69
2023-05-06T10:54:09.099Z,61.99
2023-05-06T10:55:09.477Z,62.29
2023-05-06T10:56:09.128Z,61.88
2023-05-06T10:57:09.110Z,61.69
2023-05-06T10:58:09.060Z,61.49
2023-05-06T10:59:09.056Z,61.88
2023-05-06T11:00:09.037Z,61.76
2023-05-06T11:01:09.068Z,61.15
2023-05-06T11:02:09.054Z,60.96
2023-05-06T11:03:09.123Z,60.65
2023-05-06T11:04:08.998Z,60.65
2023-05-06T11:05:09.811Z,59.34
2023-05-06T11:06:08.974Z,59.25
2023-05-06T11:07:08.974Z,59.14
2023-05-06T11:08:08.983Z,60.05
2023-05-06T11:09:08.957Z,60.05
2023-05-06T11:10:09.331Z,60.05
2023-05-06T11:11:08.923Z,60.25
2023-05-06T11:12:08.903Z,59.75
2023-05-06T11:13:08.926Z,59.65
2023-05-06T11:14:08.882Z,58.84
2023-05-06T11:15:09.122Z,58.94
2023-05-06T11:16:08.858Z,57.94
2023-05-06T11:17:09.033Z,57.44
2023-05-06T11:18:08.900Z,57.64
2023-05-06T11:19:08.838Z,57.44
2023-05-06T11:20:08.983Z,57.44
2023-05-06T11:21:09.106Z,57.24
2023-05-06T11:22:08.800Z,58.64
2023-05-06T11:23:08.789Z,59.14
2023-05-06T11:24:08.793Z,59.22
2023-05-06T11:25:08.771Z,59.52
2023-05-06T11:26:08.808Z,59.12
2023-05-06T11:27:08.748Z,59.32
2023-05-06T11:28:08.727Z,59.72
2023-05-06T11:29:08.736Z,60.22
2023-05-06T11:30:08.864Z,60.32
2023-05-06T11:31:09.055Z,59.62
2023-05-06T11:32:08.699Z,59.01
2023-05-06T11:33:08.723Z,58.72
2023-05-06T11:34:08.665Z,58.81
2023-05-06T11:35:08.662Z,59.32
2023-05-06T11:36:08.678Z,59.42
2023-05-06T11:37:09.755Z,58.72
2023-05-06T11:38:08.674Z,58.29
2023-05-06T11:39:08.624Z,58.18
2023-05-06T11:40:08.795Z,57.89
2023-05-06T11:41:08.603Z,57.68
2023-05-06T11:42:09.104Z,57.79
2023-05-06T11:43:10.513Z,57.68
2023-05-06T11:44:10.901Z,57.39
2023-05-06T11:45:08.552Z,57.39
2023-05-06T11:46:08.603Z,57.18
2023-05-06T11:47:08.546Z,57.59
2023-05-06T11:48:08.518Z,57.98
2023-05-06T11:49:08.515Z,58.09
2023-05-06T11:50:08.744Z,57.51
2023-05-06T11:51:08.505Z,57.81
2023-05-06T11:52:08.484Z,57.71
2023-05-06T11:53:08.468Z,57.81
2023-05-06T11:54:08.461Z,57.71
2023-05-06T11:55:08.446Z,57.68
2023-05-06T11:56:08.477Z,58.39
2023-05-06T11:57:08.470Z,58.18
2023-05-06T11:58:08.414Z,57.48
2023-05-06T11:59:08.421Z,57.89
2023-05-06T12:00:08.653Z,57.89
2023-05-06T12:01:08.388Z,57.89
2023-05-06T12:02:08.431Z,58.18
2023-05-06T12:03:08.406Z,57.98
2023-05-06T12:04:08.613Z,57.39
2023-05-06T12:05:08.408Z,57.59
2023-05-06T12:06:08.320Z,57.18
2023-05-06T12:07:08.325Z,57.39
2023-05-06T12:08:16.288Z,57.48
2023-05-06T12:09:09.303Z,57.79
2023-05-06T12:10:08.404Z,57.89
2023-05-06T12:11:08.277Z,57.98
2023-05-06T12:12:08.272Z,57.89
2023-05-06T12:13:08.324Z,57.79
2023-05-06T12:14:08.272Z,58.09
2023-05-06T12:15:08.248Z,57.68
2023-05-06T12:16:08.308Z,57.68
2023-05-06T12:17:08.210Z,57.48
2023-05-06T12:18:08.319Z,57.59
2023-05-06T12:19:08.220Z,57.18
2023-05-06T12:20:08.349Z,57.39
2023-05-06T12:21:08.170Z,57.59
2023-05-06T12:22:08.144Z,57.18
2023-05-06T12:23:08.146Z,56.48
2023-05-06T12:24:08.199Z,56.88
2023-05-06T12:25:08.219Z,56.35
2023-05-06T12:26:08.144Z,56.05
2023-05-06T12:27:08.101Z,56.26
2023-05-06T12:28:08.085Z,56.15
2023-05-06T12:29:08.070Z,56.35
2023-05-06T12:30:08.150Z,57.53
2023-05-06T12:31:08.124Z,56.13
2023-05-06T12:32:09.102Z,55.63
2023-05-06T12:33:08.211Z,54.93
2023-05-06T12:34:08.046Z,55.00
2023-05-06T12:35:08.009Z,54.39
2023-05-06T12:36:08.572Z,53.80
2023-05-06T12:37:07.992Z,53.30
2023-05-06T12:38:07.974Z,53.50
2023-05-06T12:39:08.007Z,53.89
2023-05-06T12:40:08.031Z,53.47
2023-05-06T12:41:07.949Z,53.67
2023-05-06T12:42:08.016Z,53.87
2023-05-06T12:43:07.975Z,53.57
2023-05-06T12:44:07.966Z,53.17
2023-05-06T12:45:07.898Z,53.05
2023-05-06T12:46:08.078Z,52.84
2023-05-06T12:47:07.906Z,52.84
2023-05-06T12:48:07.928Z,51.54
2023-05-06T12:49:07.854Z,51.97
2023-05-06T12:50:07.853Z,52.87
2023-05-06T12:51:07.853Z,53.77
2023-05-06T12:52:07.856Z,54.35